Time;durP1;ratioP1;P1;durP2;ratioP2;P2;SDS_P1;SDS_P2;PMS_P1;PMS_P2;Temp;Humidity;BMP_temperature;BMP_pressure;BME280_temperature;BME280_humidity;BME280_pressure;Samples;Min_cycle;Max_cycle;Signal;HPM_P1;HPM_P2
2023/12/02 05:31:09;;;;;;;0.10;0.10;;;1.90;80.80;;;;;;5641835;23;20051;-74
2023/12/02 05:33:35;;;;;;;0.10;0.10;;;2.00;80.70;;;;;;4992973;28;20549;-74
2023/12/02 05:36:00;;;;;;;0.20;0.20;;;1.90;80.60;;;;;;4983662;28;20026;-74
2023/12/02 05:38:27;;;;;;;0.10;0.10;;;1.90;80.90;;;;;;4993178;28;20051;-74
2023/12/02 05:40:52;;;;;;;0.15;0.15;;;1.90;80.70;;;;;;4986263;28;20084;-74
2023/12/02 05:43:18;;;;;;;0.20;0.20;;;1.90;80.70;;;;;;4995007;28;20086;-74
2023/12/02 05:45:44;;;;;;;0.10;0.10;;;1.80;80.50;;;;;;4977896;28;20027;-74
2023/12/02 05:48:09;;;;;;;0.10;0.10;;;1.80;80.90;;;;;;4977620;28;20106;-74
2023/12/02 05:50:35;;;;;;;0.20;0.20;;;1.90;80.90;;;;;;5009847;28;20049;-74
2023/12/02 05:53:03;;;;;;;0.20;0.20;;;1.80;80.50;;;;;;5022448;28;20034;-74
2023/12/02 05:55:29;;;;;;;0.15;0.15;;;1.80;80.40;;;;;;4992656;28;20038;-74
2023/12/02 05:57:54;;;;;;;0.20;0.20;;;1.80;80.60;;;;;;4977542;28;20039;-74
2023/12/02 06:00:20;;;;;;;0.20;0.20;;;1.70;80.50;;;;;;4984362;28;20040;-74
2023/12/02 06:02:45;;;;;;;0.10;0.10;;;1.70;80.60;;;;;;4995778;28;20117;-74
2023/12/02 06:05:11;;;;;;;0.20;0.20;;;1.70;80.60;;;;;;4984545;28;20106;-74
2023/12/02 06:07:37;;;;;;;0.20;0.20;;;1.70;80.50;;;;;;4995075;28;20033;-74
2023/12/02 06:10:03;;;;;;;0.20;0.20;;;1.60;80.60;;;;;;5006694;28;20664;-74
2023/12/02 06:12:28;;;;;;;0.20;0.20;;;1.70;80.60;;;;;;4986273;28;20038;-74
2023/12/02 06:14:54;;;;;;;0.10;0.10;;;1.60;80.50;;;;;;4977402;28;20058;-74
2023/12/02 06:17:20;;;;;;;0.20;0.20;;;1.60;80.50;;;;;;4975906;28;20035;-74
2023/12/02 06:19:45;;;;;;;0.10;0.10;;;1.60;80.30;;;;;;4977301;28;20027;-74
2023/12/02 06:22:11;;;;;;;0.10;0.10;;;1.50;80.50;;;;;;4977457;28;20062;-74
2023/12/02 06:24:37;;;;;;;0.20;0.20;;;1.50;80.30;;;;;;4977063;28;20027;-74
2023/12/02 06:27:03;;;;;;;0.20;0.20;;;1.50;80.20;;;;;;4977445;28;20035;-74
2023/12/02 06:29:28;;;;;;;0.20;0.20;;;1.50;80.30;;;;;;4977009;28;20043;-74
2023/12/02 06:31:54;;;;;;;0.15;0.15;;;1.40;80.40;;;;;;4962943;28;20059;-74
2023/12/02 06:34:20;;;;;;;0.20;0.20;;;1.50;80.70;;;;;;4958962;28;20530;-74
2023/12/02 06:36:45;;;;;;;0.20;0.20;;;1.40;80.00;;;;;;4957776;28;20557;-74
2023/12/02 06:39:15;;;;;;;0.20;0.20;;;1.40;80.40;;;;;;4943584;29;20027;-74
2023/12/02 06:41:41;;;;;;;0.13;0.13;;;1.40;80.30;;;;;;4978124;28;20019;-73
2023/12/02 06:44:07;;;;;;;0.10;0.10;;;1.40;80.10;;;;;;4956525;29;20019;-73
2023/12/02 06:46:33;;;;;;;0.10;0.10;;;1.30;80.10;;;;;;4961302;29;20042;-73
2023/12/02 06:48:59;;;;;;;0.20;0.20;;;1.30;80.10;;;;;;4961144;28;20035;-73
2023/12/02 06:51:28;;;;;;;0.20;0.20;;;1.30;80.20;;;;;;4944035;29;20102;-73
2023/12/02 06:53:54;;;;;;;0.20;0.20;;;1.30;80.10;;;;;;4960960;28;20061;-73
2023/12/02 06:56:21;;;;;;;0.10;0.10;;;1.30;79.90;;;;;;4979550;28;20094;-73
2023/12/02 06:58:49;;;;;;;0.13;0.13;;;1.40;79.80;;;;;;4980590;28;20026;-73
2023/12/02 07:01:28;;;;;;;0.10;0.10;;;1.40;79.70;;;;;;4960720;28;20019;-73
2023/12/02 07:03:54;;;;;;;0.20;0.20;;;1.40;79.60;;;;;;4969861;28;20027;-73
2023/12/02 07:06:20;;;;;;;0.20;0.20;;;1.40;79.60;;;;;;4988781;28;20027;-73
2023/12/02 07:08:47;;;;;;;0.20;0.20;;;1.30;79.60;;;;;;4971997;28;20629;-74
2023/12/02 07:11:13;;;;;;;0.20;0.20;;;1.30;79.50;;;;;;4987345;28;20030;-74
2023/12/02 07:13:39;;;;;;;0.20;0.20;;;1.30;79.40;;;;;;4959030;28;20034;-72
2023/12/02 07:16:05;;;;;;;0.20;0.20;;;1.30;79.50;;;;;;4995898;28;20038;-74
2023/12/02 07:18:31;;;;;;;0.20;0.20;;;1.40;79.30;;;;;;4999428;28;20026;-73
2023/12/02 07:20:56;;;;;;;0.20;0.20;;;1.40;79.20;;;;;;4990587;28;20027;-73
2023/12/02 07:23:25;;;;;;;0.20;0.20;;;1.30;79.20;;;;;;4960315;29;20024;-72
2023/12/02 07:25:54;;;;;;;0.20;0.20;;;1.30;79.10;;;;;;4960395;29;20034;-73
2023/12/02 07:28:19;;;;;;;0.20;0.20;;;1.30;78.90;;;;;;4960440;29;20031;-72
2023/12/02 07:30:45;;;;;;;0.10;0.10;;;1.20;78.90;;;;;;4960252;28;20061;-73
2023/12/02 07:33:10;;;;;;;0.10;0.10;;;1.20;79.20;;;;;;4960673;28;20026;-72
2023/12/02 07:35:36;;;;;;;0.10;0.10;;;1.20;79.20;;;;;;4987554;28;20038;-72
2023/12/02 07:38:02;;;;;;;0.10;0.10;;;1.20;79.40;;;;;;4986602;28;20015;-74
2023/12/02 07:40:28;;;;;;;0.20;0.20;;;1.20;79.20;;;;;;4978017;28;20035;-74
2023/12/02 07:42:53;;;;;;;0.20;0.20;;;1.20;79.10;;;;;;4965042;28;20023;-74
2023/12/02 07:45:19;;;;;;;0.20;0.20;;;1.20;79.00;;;;;;4974703;28;20102;-75
2023/12/02 07:47:44;;;;;;;0.20;0.20;;;1.20;79.10;;;;;;4977479;28;20458;-73
2023/12/02 07:50:10;;;;;;;0.20;0.20;;;1.10;79.00;;;;;;4976154;28;20478;-73
2023/12/02 07:52:36;;;;;;;0.20;0.20;;;1.20;79.00;;;;;;4975134;28;20088;-75
2023/12/02 07:55:01;;;;;;;0.20;0.20;;;1.10;79.20;;;;;;4968430;28;20098;-74
2023/12/02 07:57:27;;;;;;;0.20;0.20;;;1.20;79.00;;;;;;4960007;29;20027;-74
2023/12/02 07:59:52;;;;;;;0.20;0.20;;;1.20;78.90;;;;;;4953252;28;20035;-75
2023/12/02 08:02:18;;;;;;;0.20;0.20;;;1.30;78.80;;;;;;4978229;28;20019;-75
2023/12/02 08:04:44;;;;;;;0.20;0.20;;;1.30;78.60;;;;;;4977580;28;20034;-75
2023/12/02 08:07:09;;;;;;;0.20;0.20;;;1.20;78.50;;;;;;4960408;28;20114;-74
2023/12/02 08:09:35;;;;;;;0.20;0.20;;;1.20;78.60;;;;;;4978396;28;20046;-75
2023/12/02 08:12:01;;;;;;;0.20;0.20;;;1.20;78.80;;;;;;4977617;28;20030;-74
2023/12/02 08:14:26;;;;;;;0.17;0.17;;;1.20;78.80;;;;;;4970135;28;20494;-74
2023/12/02 08:16:52;;;;;;;0.20;0.20;;;1.20;78.90;;;;;;4978819;28;20085;-74
2023/12/02 08:19:17;;;;;;;0.20;0.20;;;1.20;78.90;;;;;;4943157;29;20093;-74
2023/12/02 08:21:43;;;;;;;0.20;0.20;;;1.20;79.40;;;;;;4959079;28;20086;-74
2023/12/02 08:24:09;;;;;;;0.15;0.15;;;1.30;79.00;;;;;;4940818;29;20031;-74
2023/12/02 08:26:35;;;;;;;0.20;0.20;;;1.30;79.10;;;;;;4958664;28;20035;-76
2023/12/02 08:29:00;;;;;;;0.20;0.20;;;1.30;79.10;;;;;;4959122;29;20031;-74
2023/12/02 08:31:26;;;;;;;0.20;0.20;;;1.40;79.30;;;;;;4959031;28;20055;-75
2023/12/02 08:33:51;;;;;;;0.20;0.20;;;1.40;79.00;;;;;;4965193;28;20727;-74
2023/12/02 08:36:17;;;;;;;0.20;0.20;;;1.40;78.80;;;;;;4968582;28;20033;-75
2023/12/02 08:38:43;;;;;;;0.20;0.20;;;1.40;78.70;;;;;;4977748;28;20034;-74
2023/12/02 08:41:08;;;;;;;0.20;0.20;;;1.40;78.80;;;;;;4989064;28;20034;-74
2023/12/02 08:43:34;;;;;;;0.20;0.20;;;1.30;78.60;;;;;;4978621;28;20027;-74
2023/12/02 08:45:59;;;;;;;0.20;0.20;;;1.30;79.30;;;;;;4978491;28;20069;-75
2023/12/02 08:48:26;;;;;;;0.20;0.20;;;1.20;79.30;;;;;;4956650;29;20042;-74
2023/12/02 08:50:51;;;;;;;0.20;0.20;;;1.20;79.80;;;;;;4957879;29;20475;-76
2023/12/02 08:53:17;;;;;;;0.20;0.20;;;1.20;79.30;;;;;;4960315;28;20054;-74
2023/12/02 08:55:43;;;;;;;0.20;0.20;;;1.20;79.30;;;;;;4960158;28;20058;-76
2023/12/02 08:58:08;;;;;;;0.20;0.20;;;1.10;79.30;;;;;;4979374;28;20098;-74
2023/12/02 09:00:34;;;;;;;0.20;0.20;;;1.20;79.70;;;;;;4982975;28;20034;-74
2023/12/02 09:03:00;;;;;;;0.20;0.20;;;1.40;79.80;;;;;;4987359;28;20119;-74
2023/12/02 09:05:26;;;;;;;0.20;0.20;;;1.60;79.10;;;;;;4985080;28;20469;-74
2023/12/02 09:07:52;;;;;;;0.40;0.40;;;1.80;79.00;;;;;;4988160;28;20402;-75
2023/12/02 09:10:18;;;;;;;4.15;3.85;;;2.00;78.00;;;;;;4981113;28;20027;-74
2023/12/02 09:12:44;;;;;;;0.50;0.50;;;2.30;77.50;;;;;;4987226;28;20033;-75
2023/12/02 09:15:40;;;;;;;0.30;0.30;;;2.70;76.30;;;;;;4984084;28;20023;-74
2023/12/02 09:18:09;;;;;;;0.13;0.13;;;2.80;75.80;;;;;;4948775;28;20884;-75
2023/12/02 09:20:49;;;;;;;0.20;0.20;;;2.70;75.60;;;;;;4973879;28;20022;-75
2023/12/02 09:23:20;;;;;;;0.10;0.10;;;2.50;76.10;;;;;;4974612;28;20026;-75
2023/12/02 09:25:46;;;;;;;0.20;0.20;;;2.40;76.10;;;;;;4992147;28;20027;-74
2023/12/02 09:28:15;;;;;;;0.20;0.20;;;2.30;76.20;;;;;;4959232;28;20034;-75
2023/12/02 09:30:45;;;;;;;0.20;0.20;;;2.30;76.50;;;;;;4960426;28;20051;-75
2023/12/02 09:33:11;;;;;;;0.20;0.20;;;2.40;76.60;;;;;;4967955;28;20046;-74
2023/12/02 09:35:36;;;;;;;0.10;0.10;;;2.30;75.90;;;;;;4977576;28;20506;-75
2023/12/02 09:38:03;;;;;;;0.20;0.20;;;2.30;76.30;;;;;;4965631;28;20039;-74
2023/12/02 09:40:34;;;;;;;0.20;0.20;;;2.40;75.90;;;;;;4963578;28;20106;-74
2023/12/02 09:43:22;;;;;;;0.20;0.20;;;2.50;76.50;;;;;;4941267;29;20027;-75
2023/12/02 09:45:57;;;;;;;0.20;0.20;;;2.50;75.70;;;;;;4989969;28;20026;-74
2023/12/02 09:48:24;;;;;;;0.20;0.20;;;2.50;76.10;;;;;;4980211;28;20039;-74
2023/12/02 09:51:20;;;;;;;0.20;0.20;;;2.60;76.10;;;;;;4987609;28;20025;-75
2023/12/02 09:54:01;;;;;;;0.20;0.20;;;2.70;76.00;;;;;;4986554;28;20041;-75
2023/12/02 09:56:30;;;;;;;0.20;0.20;;;2.70;75.90;;;;;;4977227;28;20085;-75
2023/12/02 09:59:21;;;;;;;0.20;0.20;;;2.70;75.40;;;;;;4959844;28;20421;-75
2023/12/02 10:01:55;;;;;;;0.15;0.15;;;2.80;74.90;;;;;;4975886;28;20019;-75
2023/12/02 10:04:39;;;;;;;0.10;0.10;;;2.90;74.70;;;;;;4966045;28;20051;-74
2023/12/02 10:07:20;;;;;;;0.20;0.20;;;2.90;74.90;;;;;;4958385;28;20066;-75
2023/12/02 10:10:13;;;;;;;0.20;0.20;;;2.90;75.00;;;;;;4976977;28;20461;-74
2023/12/02 10:13:12;;;;;;;0.20;0.20;;;3.00;74.80;;;;;;4957795;28;20027;-75
2023/12/02 10:15:41;;;;;;;0.20;0.20;;;3.00;75.20;;;;;;4961716;29;20031;-74
2023/12/02 10:18:10;;;;;;;0.20;0.20;;;3.10;74.80;;;;;;4961749;29;20522;-75
2023/12/02 10:20:38;;;;;;;0.17;0.17;;;3.20;74.50;;;;;;4951481;29;20514;-75
2023/12/02 10:23:25;;;;;;;0.13;0.13;;;3.20;74.50;;;;;;4961695;29;20110;-77
2023/12/02 10:26:08;;;;;;;0.10;0.10;;;3.20;74.10;;;;;;4961653;29;20032;-75
2023/12/02 10:28:56;;;;;;;0.10;0.10;;;3.20;73.70;;;;;;4961690;28;20032;-76
2023/12/02 10:31:29;;;;;;;0.20;0.20;;;3.20;73.80;;;;;;4953487;28;20051;-76
2023/12/02 10:34:28;;;;;;;0.20;0.20;;;3.20;73.50;;;;;;4967899;28;20503;-76
2023/12/02 10:36:57;;;;;;;0.20;0.20;;;3.20;73.20;;;;;;4966804;28;20028;-77
2023/12/02 10:39:48;;;;;;;0.20;0.20;;;3.20;72.90;;;;;;4944174;29;20479;-77
2023/12/02 10:42:33;;;;;;;0.20;0.20;;;3.20;73.00;;;;;;4965416;28;20103;-76
2023/12/02 10:45:06;;;;;;;0.10;0.10;;;3.30;73.20;;;;;;4955648;28;20038;-74
2023/12/02 10:47:32;;;;;;;;;;;3.40;73.50;;;;;;4978580;28;20019;-74
2023/12/02 10:50:03;;;;;;;0.20;0.20;;;3.40;72.90;;;;;;4980351;28;20350;-74
2023/12/02 10:52:31;;;;;;;0.20;0.20;;;3.40;72.80;;;;;;4963928;28;20022;-74
2023/12/02 10:54:59;;;;;;;0.13;0.13;;;3.50;72.40;;;;;;4988305;28;20102;-74
2023/12/02 10:57:26;;;;;;;0.20;0.20;;;3.50;72.50;;;;;;4986335;28;20490;-76
2023/12/02 10:59:57;;;;;;;0.20;0.20;;;3.50;72.30;;;;;;4979067;28;20023;-74
2023/12/02 11:02:31;;;;;;;0.15;0.15;;;3.50;71.20;;;;;;4979745;28;20074;-74
2023/12/02 11:05:19;;;;;;;0.10;0.10;;;3.60;71.90;;;;;;4967502;28;20026;-74
2023/12/02 11:07:51;;;;;;;0.10;0.10;;;3.60;71.90;;;;;;4984455;28;20037;-74
2023/12/02 11:10:27;;;;;;;0.20;0.20;;;3.70;71.10;;;;;;4989649;28;20077;-74
2023/12/02 11:12:57;;;;;;;0.20;0.20;;;3.70;70.50;;;;;;4985902;28;20033;-74
2023/12/02 11:15:24;;;;;;;0.20;0.20;;;3.70;70.50;;;;;;4980342;28;20486;-74
2023/12/02 11:18:03;;;;;;;0.15;0.15;;;3.70;71.50;;;;;;4959076;28;20105;-74
2023/12/02 11:20:49;;;;;;;0.20;0.20;;;3.80;71.40;;;;;;4992819;28;20026;-74
2023/12/02 11:23:18;;;;;;;0.17;0.17;;;3.80;70.40;;;;;;4975793;28;20036;-74
2023/12/02 11:26:06;;;;;;;0.20;0.20;;;3.80;71.30;;;;;;4977493;28;20023;-74
2023/12/02 11:28:38;;;;;;;0.20;0.20;;;3.90;71.50;;;;;;4978812;28;20030;-74
2023/12/02 11:31:32;;;;;;;0.20;0.20;;;4.00;71.70;;;;;;4991748;28;20474;-74
2023/12/02 11:34:03;;;;;;;;;;;4.20;71.40;;;;;;4962328;28;20045;-74
2023/12/02 11:36:33;;;;;;;0.20;0.20;;;4.20;71.60;;;;;;4978725;28;19914;-74
2023/12/02 11:39:08;;;;;;;0.20;0.20;;;4.30;71.20;;;;;;4990376;28;20033;-74
2023/12/02 11:41:58;;;;;;;0.20;0.20;;;4.30;70.90;;;;;;4964251;28;20106;-74
2023/12/02 11:44:39;;;;;;;0.20;0.20;;;4.40;70.90;;;;;;4960924;28;20109;-74
2023/12/02 11:47:19;;;;;;;0.20;0.20;;;4.50;69.90;;;;;;4977679;28;20026;-74
2023/12/02 11:49:57;;;;;;;0.10;0.10;;;4.50;69.80;;;;;;4989337;28;20510;-76
2023/12/02 11:52:50;;;;;;;0.20;0.20;;;4.70;69.40;;;;;;4985344;28;20400;-74
2023/12/02 11:55:25;;;;;;;0.20;0.20;;;4.80;69.70;;;;;;4992736;28;20109;-74
2023/12/02 11:58:24;;;;;;;0.10;0.10;;;4.90;69.40;;;;;;4975260;28;20116;-74
2023/12/02 12:01:01;;;;;;;0.20;0.20;;;5.10;68.50;;;;;;4979521;28;20058;-74
2023/12/02 12:03:33;;;;;;;0.20;0.20;;;5.20;68.10;;;;;;4960734;29;20028;-76
2023/12/02 12:06:36;;;;;;;0.20;0.20;;;5.30;67.30;;;;;;4959572;29;20027;-75
2023/12/02 12:09:37;;;;;;;0.10;0.10;;;5.40;66.00;;;;;;4961409;28;20032;-74
2023/12/02 12:12:07;;;;;;;0.10;0.10;;;5.40;66.20;;;;;;4964687;28;20039;-74
2023/12/02 12:14:36;;;;;;;0.10;0.10;;;5.50;65.70;;;;;;4961014;28;20030;-74
2023/12/02 12:17:02;;;;;;;0.15;0.15;;;5.50;65.90;;;;;;4978642;28;20062;-74
2023/12/02 12:19:28;;;;;;;0.13;0.13;;;5.50;65.20;;;;;;4960691;28;20023;-76
2023/12/02 12:21:55;;;;;;;0.10;0.10;;;5.50;65.80;;;;;;4979370;28;20027;-76
2023/12/02 12:24:20;;;;;;;0.10;0.10;;;5.30;65.50;;;;;;4961862;28;20022;-76
2023/12/02 12:26:46;;;;;;;0.10;0.10;;;5.20;66.20;;;;;;4977381;28;20039;-74
2023/12/02 12:29:12;;;;;;;0.20;0.20;;;5.20;67.10;;;;;;4959416;29;20027;-77
2023/12/02 12:31:38;;;;;;;0.20;0.20;;;5.30;66.90;;;;;;4959413;28;20125;-76
2023/12/02 12:34:13;;;;;;;0.20;0.20;;;5.20;66.90;;;;;;4966927;28;20498;-79
2023/12/02 12:36:40;;;;;;;0.20;0.20;;;5.20;66.80;;;;;;4977852;28;20039;-79
2023/12/02 12:39:09;;;;;;;0.20;0.20;;;5.30;66.90;;;;;;4978687;28;20368;-82
2023/12/02 12:41:39;;;;;;;0.20;0.20;;;5.30;67.00;;;;;;4957059;29;20035;-76
2023/12/02 12:44:05;;;;;;;0.20;0.20;;;5.30;67.50;;;;;;4956562;29;20030;-77
2023/12/02 12:46:32;;;;;;;0.10;0.10;;;5.30;67.10;;;;;;4972182;28;20030;-76
2023/12/02 12:49:01;;;;;;;0.20;0.20;;;5.30;67.80;;;;;;4983934;28;20031;-76
2023/12/02 12:51:29;;;;;;;0.10;0.10;;;5.40;67.60;;;;;;4990416;28;20686;-75
2023/12/02 12:54:02;;;;;;;0.10;0.10;;;5.40;67.00;;;;;;4974839;28;20023;-75
2023/12/02 12:56:30;;;;;;;;;;;5.40;67.60;;;;;;4966953;28;20049;-75
2023/12/02 12:59:00;;;;;;;0.10;0.10;;;5.50;68.00;;;;;;4980528;28;19918;-75
2023/12/02 13:01:32;;;;;;;0.10;0.10;;;5.50;67.10;;;;;;4983906;28;20081;-75
2023/12/02 13:04:20;;;;;;;0.20;0.20;;;5.50;67.50;;;;;;4976862;28;20038;-75
2023/12/02 13:06:48;;;;;;;0.10;0.10;;;5.60;66.10;;;;;;4974176;28;20045;-76
2023/12/02 13:09:22;;;;;;;0.10;0.10;;;5.60;67.00;;;;;;4973917;28;20089;-75
2023/12/02 13:11:48;;;;;;;0.17;0.17;;;5.60;65.80;;;;;;4976048;28;20442;-75
2023/12/02 13:14:21;;;;;;;0.10;0.10;;;5.70;65.50;;;;;;4975869;28;20027;-75
2023/12/02 13:16:47;;;;;;;0.20;0.20;;;5.70;64.90;;;;;;4975773;28;20030;-75
2023/12/02 13:19:14;;;;;;;0.10;0.10;;;5.70;64.80;;;;;;4962011;28;20565;-75
2023/12/02 13:21:42;;;;;;;0.10;0.10;;;5.70;63.10;;;;;;4980145;28;20073;-76
2023/12/02 13:24:08;;;;;;;0.10;0.10;;;5.70;62.80;;;;;;4973830;28;20026;-75
2023/12/02 13:26:36;;;;;;;0.10;0.10;;;5.70;63.20;;;;;;4973096;28;20030;-75
2023/12/02 13:29:04;;;;;;;0.20;0.20;;;5.80;63.90;;;;;;4971714;28;20031;-75
2023/12/02 13:31:38;;;;;;;0.20;0.20;;;5.80;62.90;;;;;;4976838;28;20086;-75
2023/12/02 13:34:14;;;;;;;0.15;0.15;;;5.80;61.70;;;;;;4973454;28;20140;-75
2023/12/02 13:36:43;;;;;;;0.10;0.10;;;5.90;61.70;;;;;;4969139;28;20046;-75
2023/12/02 13:39:27;;;;;;;0.10;0.10;;;5.90;60.70;;;;;;4965885;28;20023;-76
2023/12/02 13:41:54;;;;;;;0.10;0.10;;;5.90;60.10;;;;;;4977508;28;20034;-75
2023/12/02 13:44:21;;;;;;;0.17;0.17;;;5.80;59.70;;;;;;4973232;28;20031;-75
2023/12/02 13:46:49;;;;;;;0.10;0.10;;;5.90;61.00;;;;;;4977448;28;20394;-75
2023/12/02 13:49:35;;;;;;;0.20;0.20;;;5.90;61.90;;;;;;4955845;29;20027;-76
2023/12/02 13:52:09;;;;;;;0.20;0.20;;;5.90;60.00;;;;;;4961196;29;20522;-76
2023/12/02 13:55:02;;;;;;;0.10;0.10;;;5.80;60.90;;;;;;4961701;28;20031;-75
2023/12/02 13:57:41;;;;;;;0.10;0.10;;;5.90;60.90;;;;;;4970933;28;20139;-75
2023/12/02 14:00:10;;;;;;;0.10;0.10;;;5.90;60.70;;;;;;4991576;28;20951;-75
2023/12/02 14:03:04;;;;;;;0.10;0.10;;;5.80;60.20;;;;;;4981018;28;20075;-75
2023/12/02 14:05:52;;;;;;;0.20;0.20;;;5.80;61.30;;;;;;4995041;28;20022;-75
2023/12/02 14:08:20;;;;;;;0.10;0.10;;;5.80;60.70;;;;;;4926363;28;20031;-76
2023/12/02 14:10:52;;;;;;;0.10;0.10;;;5.70;59.80;;;;;;4980838;28;20038;-75
2023/12/02 14:13:41;;;;;;;0.10;0.10;;;5.80;60.80;;;;;;4963130;28;20069;-75
2023/12/02 14:16:32;;;;;;;0.20;0.20;;;5.80;59.00;;;;;;4979614;28;20042;-75
2023/12/02 14:19:25;;;;;;;0.20;0.20;;;5.80;58.10;;;;;;4979356;28;20430;-75
2023/12/02 14:22:09;;;;;;;0.20;0.20;;;5.70;59.30;;;;;;4976750;28;20394;-75
2023/12/02 14:25:10;;;;;;;0.20;0.20;;;5.70;60.50;;;;;;4978289;28;20035;-77
2023/12/02 14:28:04;;;;;;;0.10;0.10;;;5.70;61.30;;;;;;4978349;28;20027;-78
2023/12/02 14:30:54;;;;;;;0.10;0.10;;;5.70;62.30;;;;;;4980796;28;20092;-75
2023/12/02 14:33:50;;;;;;;0.10;0.10;;;5.70;62.10;;;;;;4963276;28;20026;-75
2023/12/02 14:36:36;;;;;;;0.10;0.10;;;5.70;63.70;;;;;;4993580;28;20106;-75
2023/12/02 14:39:32;;;;;;;0.20;0.20;;;5.70;63.70;;;;;;4966470;28;20391;-75
2023/12/02 14:42:11;;;;;;;0.20;0.20;;;5.60;64.10;;;;;;4980478;28;20478;-75
2023/12/02 14:44:40;;;;;;;0.10;0.10;;;5.60;62.50;;;;;;4979569;28;20078;-76
2023/12/02 14:47:09;;;;;;;0.17;0.17;;;5.60;62.10;;;;;;4967688;28;20034;-75
2023/12/02 14:49:54;;;;;;;0.20;0.20;;;5.50;62.00;;;;;;4962562;28;20065;-76
2023/12/02 14:52:23;;;;;;;0.10;0.10;;;5.60;62.30;;;;;;4979320;28;20038;-75
2023/12/02 14:54:50;;;;;;;0.10;0.10;;;5.60;61.50;;;;;;4972861;28;20030;-75
2023/12/02 14:57:21;;;;;;;0.20;0.20;;;5.50;61.90;;;;;;4955737;29;20564;-75
2023/12/02 15:00:00;;;;;;;0.10;0.10;;;5.50;61.50;;;;;;4959377;28;20499;-75
2023/12/02 15:02:49;;;;;;;0.10;0.10;;;5.50;62.90;;;;;;4960016;29;20031;-75
2023/12/02 15:05:16;;;;;;;0.10;0.10;;;5.50;62.80;;;;;;4976549;28;20038;-75
2023/12/02 15:07:44;;;;;;;0.10;0.10;;;5.50;62.80;;;;;;4967615;28;20034;-77
2023/12/02 15:10:17;;;;;;;0.10;0.10;;;5.40;63.00;;;;;;4973627;28;20074;-77
2023/12/02 15:12:45;;;;;;;0.10;0.10;;;5.30;61.40;;;;;;4969155;28;20029;-75
2023/12/02 15:15:32;;;;;;;0.13;0.13;;;5.30;63.50;;;;;;4978455;28;20027;-75
2023/12/02 15:18:03;;;;;;;0.20;0.20;;;5.30;63.40;;;;;;4977109;28;20031;-75
2023/12/02 15:20:30;;;;;;;0.20;0.20;;;5.20;63.30;;;;;;4957113;29;20039;-75
2023/12/02 15:23:17;;;;;;;0.10;0.10;;;5.20;63.20;;;;;;4960425;28;20037;-75
2023/12/02 15:25:43;;;;;;;0.10;0.10;;;5.30;64.40;;;;;;4961497;28;20035;-75
2023/12/02 15:28:18;;;;;;;0.20;0.20;;;5.20;64.60;;;;;;4981597;28;20026;-75
2023/12/02 15:30:47;;;;;;;0.10;0.10;;;5.20;64.00;;;;;;4975332;28;20066;-76
2023/12/02 15:33:16;;;;;;;0.10;0.10;;;5.20;64.90;;;;;;4974749;28;20034;-75
2023/12/02 15:35:46;;;;;;;0.20;0.20;;;5.20;65.40;;;;;;4973268;28;20105;-75
2023/12/02 15:38:12;;;;;;;0.10;0.10;;;5.20;65.80;;;;;;4977559;28;20541;-75
2023/12/02 15:40:42;;;;;;;0.10;0.10;;;5.20;65.90;;;;;;4981637;28;20121;-76
2023/12/02 15:43:08;;;;;;;0.10;0.10;;;5.20;66.40;;;;;;4984230;28;20069;-75
2023/12/02 15:45:34;;;;;;;0.10;0.10;;;5.10;66.90;;;;;;4987318;28;20413;-76
2023/12/02 15:48:00;;;;;;;0.10;0.10;;;5.00;67.10;;;;;;4983499;28;20386;-75
2023/12/02 15:50:26;;;;;;;0.10;0.10;;;4.90;68.00;;;;;;4966600;28;20030;-75
2023/12/02 15:52:52;;;;;;;0.20;0.20;;;4.90;68.20;;;;;;4979412;28;20027;-76
2023/12/02 15:55:20;;;;;;;0.20;0.20;;;4.80;68.20;;;;;;4984682;28;20022;-75
2023/12/02 15:57:46;;;;;;;0.13;0.13;;;4.70;68.00;;;;;;4984959;28;20037;-75
2023/12/02 16:00:15;;;;;;;0.10;0.10;;;4.70;68.10;;;;;;4982578;28;21499;-75
2023/12/02 16:02:44;;;;;;;0.10;0.10;;;4.70;68.50;;;;;;4981174;28;20019;-75
2023/12/02 16:05:13;;;;;;;0.10;0.10;;;4.60;68.50;;;;;;4975773;28;20038;-75
2023/12/02 16:07:40;;;;;;;0.10;0.10;;;4.50;68.20;;;;;;4974192;28;20422;-75
2023/12/02 16:10:11;;;;;;;0.10;0.10;;;4.50;68.40;;;;;;4976791;28;20034;-76
2023/12/02 16:12:37;;;;;;;0.10;0.10;;;4.50;68.60;;;;;;4969102;28;20027;-76
2023/12/02 16:15:03;;;;;;;0.17;0.17;;;4.40;68.30;;;;;;4969706;28;20034;-75
2023/12/02 16:17:31;;;;;;;0.20;0.20;;;4.40;68.70;;;;;;4958830;29;20023;-75
2023/12/02 16:19:56;;;;;;;0.10;0.10;;;4.30;69.20;;;;;;4968743;28;20113;-76
2023/12/02 16:22:23;;;;;;;0.20;0.20;;;4.20;69.20;;;;;;4977637;28;20023;-76
2023/12/02 16:24:49;;;;;;;0.10;0.10;;;4.20;69.70;;;;;;4978310;28;20380;-75
2023/12/02 16:27:17;;;;;;;0.10;0.10;;;4.20;69.70;;;;;;4958486;29;20038;-77
2023/12/02 16:29:52;;;;;;;0.10;0.10;;;4.10;69.70;;;;;;4958610;28;20120;-77
2023/12/02 16:32:19;;;;;;;0.10;0.10;;;4.10;70.20;;;;;;4956814;28;20546;-76
2023/12/02 16:34:45;;;;;;;0.20;0.20;;;4.00;70.30;;;;;;4974815;28;20058;-75
2023/12/02 16:37:14;;;;;;;0.20;0.20;;;3.90;70.30;;;;;;4974917;28;20573;-75
2023/12/02 16:39:41;;;;;;;0.20;0.20;;;3.90;70.40;;;;;;4956132;28;20026;-77
2023/12/02 16:42:07;;;;;;;0.10;0.10;;;3.90;70.60;;;;;;4987424;28;20027;-76
2023/12/02 16:44:32;;;;;;;0.20;0.20;;;3.90;70.80;;;;;;4959879;28;20126;-77
2023/12/02 16:46:58;;;;;;;0.20;0.20;;;3.90;70.90;;;;;;4973308;28;20160;-76
2023/12/02 16:49:24;;;;;;;0.10;0.10;;;3.90;71.20;;;;;;4962402;28;20058;-77
2023/12/02 16:51:50;;;;;;;0.20;0.20;;;3.90;71.30;;;;;;4960437;28;20497;-79
2023/12/02 16:54:16;;;;;;;0.10;0.10;;;3.90;71.40;;;;;;4957875;28;20100;-75
2023/12/02 16:56:43;;;;;;;0.10;0.10;;;3.90;71.50;;;;;;4970163;28;20104;-75
2023/12/02 16:59:29;;;;;;;0.20;0.20;;;3.80;71.60;;;;;;4971100;28;20561;-76
2023/12/02 17:01:54;;;;;;;0.20;0.20;;;3.70;72.00;;;;;;4966655;28;20562;-77
2023/12/02 17:04:21;;;;;;;0.20;0.20;;;3.70;72.10;;;;;;4971930;28;20085;-77
2023/12/02 17:06:46;;;;;;;0.10;0.10;;;3.70;72.30;;;;;;4976856;28;20019;-80
2023/12/02 17:09:33;;;;;;;0.10;0.10;;;3.60;72.50;;;;;;4958528;28;20035;-83
2023/12/02 17:11:58;;;;;;;0.17;0.17;;;3.50;72.60;;;;;;4971779;28;20376;-82
2023/12/02 17:14:28;;;;;;;0.20;0.20;;;3.40;73.20;;;;;;4969468;28;20104;-81
2023/12/02 17:16:55;;;;;;;0.10;0.10;;;3.40;73.40;;;;;;4972762;28;20034;-80
2023/12/02 17:19:23;;;;;;;0.20;0.20;;;3.50;73.30;;;;;;4953600;28;20101;-81
2023/12/02 17:21:51;;;;;;;0.20;0.20;;;3.50;73.20;;;;;;4966434;28;20046;-82
2023/12/02 17:24:38;;;;;;;0.10;0.10;;;3.50;73.30;;;;;;4979056;28;20034;-81
2023/12/02 17:27:06;;;;;;;0.20;0.20;;;3.50;73.30;;;;;;4979140;28;20026;-81
2023/12/02 17:29:34;;;;;;;0.20;0.20;;;3.50;73.20;;;;;;4963142;28;20081;-80
2023/12/02 17:32:01;;;;;;;0.17;0.17;;;3.50;73.30;;;;;;4981340;28;20050;-81
2023/12/02 17:34:27;;;;;;;0.20;0.20;;;3.50;73.30;;;;;;4956541;28;20043;-82
2023/12/02 17:36:54;;;;;;;0.10;0.10;;;3.50;73.40;;;;;;4981290;28;20026;-78
2023/12/02 17:39:20;;;;;;;0.20;0.20;;;3.40;73.20;;;;;;4982498;28;20062;-81
2023/12/02 17:41:49;;;;;;;0.20;0.20;;;3.40;73.10;;;;;;4973679;28;20031;-80
2023/12/02 17:44:18;;;;;;;0.15;0.15;;;3.40;73.50;;;;;;4971726;28;20029;-83
2023/12/02 17:46:44;;;;;;;0.20;0.20;;;3.30;73.30;;;;;;4966917;28;20032;-85
2023/12/02 17:49:12;;;;;;;0.20;0.20;;;3.30;73.20;;;;;;4963171;28;20101;-85
2023/12/02 17:51:39;;;;;;;0.20;0.20;;;3.30;73.40;;;;;;4982553;28;20439;-84
2023/12/02 17:54:05;;;;;;;0.20;0.20;;;3.20;73.40;;;;;;4982336;28;20030;-88
2023/12/02 17:56:30;;;;;;;0.20;0.20;;;3.20;73.40;;;;;;4967074;28;20096;-79
2023/12/02 17:58:56;;;;;;;0.30;0.30;;;3.20;73.30;;;;;;4962391;28;20122;-81
2023/12/02 18:01:22;;;;;;;0.20;0.20;;;3.10;73.60;;;;;;4968021;28;20169;-84
2023/12/02 18:03:47;;;;;;;0.10;0.10;;;3.10;74.40;;;;;;4963543;28;20137;-85
2023/12/02 18:06:13;;;;;;;0.13;0.13;;;3.10;74.30;;;;;;4964740;28;20395;-84
2023/12/02 18:08:39;;;;;;;0.20;0.20;;;3.10;74.10;;;;;;4980280;28;20453;-80
2023/12/02 18:11:05;;;;;;;0.20;0.20;;;3.20;74.20;;;;;;4979617;28;20502;-81
2023/12/02 18:13:30;;;;;;;0.13;0.13;;;3.20;73.90;;;;;;4973241;28;20300;-80
2023/12/02 18:15:56;;;;;;;0.20;0.20;;;3.20;74.10;;;;;;4974423;28;20042;-81
2023/12/02 18:18:23;;;;;;;0.20;0.20;;;3.20;74.10;;;;;;4972842;28;20103;-78
2023/12/02 18:20:49;;;;;;;0.17;0.17;;;3.20;74.10;;;;;;4955324;28;20030;-80
2023/12/02 18:23:17;;;;;;;0.10;0.10;;;3.10;74.00;;;;;;4957519;28;20559;-84
2023/12/02 18:25:43;;;;;;;0.20;0.20;;;3.10;74.00;;;;;;4954127;29;20019;-80
2023/12/02 18:28:09;;;;;;;0.10;0.10;;;3.10;73.90;;;;;;4969538;28;20467;-80
2023/12/02 18:30:35;;;;;;;0.20;0.20;;;3.10;74.00;;;;;;4964522;28;20114;-79
2023/12/02 18:33:00;;;;;;;0.20;0.20;;;3.00;74.10;;;;;;4957163;28;20065;-77
2023/12/02 18:35:26;;;;;;;0.10;0.10;;;3.10;74.10;;;;;;4978848;28;20037;-79
2023/12/02 18:37:52;;;;;;;0.20;0.20;;;3.10;74.00;;;;;;4974169;28;20031;-80
2023/12/02 18:40:21;;;;;;;0.20;0.20;;;3.10;74.10;;;;;;4978816;28;20069;-79
2023/12/02 18:42:47;;;;;;;0.20;0.20;;;3.10;73.90;;;;;;4978425;28;20094;-79
2023/12/02 18:45:12;;;;;;;0.20;0.20;;;3.00;74.30;;;;;;4958571;28;20490;-79
2023/12/02 18:47:38;;;;;;;0.20;0.20;;;3.00;74.30;;;;;;4957547;28;20031;-78